sensor_id;sensor_type;location;lat;lon;timestamp;pressure;altitude;pressure_sealevel;temperature;humidity
10135;BME280;5107;48.850;8.924;2023-02-04T00:00:17;98026.69;;;6.39;100.00
10135;BME280;5107;48.850;8.924;2023-02-04T00:02:45;98018.97;;;6.37;100.00
10135;BME280;5107;48.850;8.924;2023-02-04T00:05:13;98020.63;;;6.38;100.00
10135;BME280;5107;48.850;8.924;2023-02-04T00:07:42;98018.03;;;6.38;100.00
10135;BME280;5107;48.850;8.924;2023-02-04T00:10:09;98030.03;;;6.41;100.00
10135;BME280;5107;48.850;8.924;2023-02-04T00:12:38;98031.81;;;6.40;100.00
10135;BME280;5107;48.850;8.924;2023-02-04T00:15:06;98024.81;;;6.41;100.00
10135;BME280;5107;48.850;8.924;2023-02-04T00:17:33;98021.25;;;6.42;100.00
10135;BME280;5107;48.850;8.924;2023-02-04T00:20:00;98023.78;;;6.43;100.00
10135;BME280;5107;48.850;8.924;2023-02-04T00:22:27;98016.63;;;6.45;100.00
10135;BME280;5107;48.850;8.924;2023-02-04T00:24:54;98021.75;;;6.47;100.00
10135;BME280;5107;48.850;8.924;2023-02-04T00:27:21;98026.03;;;6.48;100.00
10135;BME280;5107;48.850;8.924;2023-02-04T00:29:50;98023.31;;;6.50;100.00
10135;BME280;5107;48.850;8.924;2023-02-04T00:32:17;98036.38;;;6.50;100.00
10135;BME280;5107;48.850;8.924;2023-02-04T00:34:44;98042.84;;;6.57;100.00
10135;BME280;5107;48.850;8.924;2023-02-04T00:37:11;98041.28;;;6.54;100.00
10135;BME280;5107;48.850;8.924;2023-02-04T00:39:38;98041.50;;;6.51;100.00
10135;BME280;5107;48.850;8.924;2023-02-04T00:42:05;98041.63;;;6.50;100.00
10135;BME280;5107;48.850;8.924;2023-02-04T00:44:35;98030.53;;;6.46;100.00
10135;BME280;5107;48.850;8.924;2023-02-04T00:47:04;98047.06;;;6.46;100.00
10135;BME280;5107;48.850;8.924;2023-02-04T00:49:32;98038.28;;;6.47;100.00
10135;BME280;5107;48.850;8.924;2023-02-04T00:51:59;98040.69;;;6.51;100.00
10135;BME280;5107;48.850;8.924;2023-02-04T00:54:27;98043.88;;;6.54;100.00
10135;BME280;5107;48.850;8.924;2023-02-04T00:56:54;98048.69;;;6.60;100.00
10135;BME280;5107;48.850;8.924;2023-02-04T00:59:21;98051.41;;;6.59;100.00
10135;BME280;5107;48.850;8.924;2023-02-04T01:01:48;98063.53;;;6.60;99.54
10135;BME280;5107;48.850;8.924;2023-02-04T01:04:17;98047.63;;;6.63;98.47
10135;BME280;5107;48.850;8.924;2023-02-04T01:06:46;98058.47;;;6.69;97.92
10135;BME280;5107;48.850;8.924;2023-02-04T01:09:13;98065.25;;;6.72;97.90
10135;BME280;5107;48.850;8.924;2023-02-04T01:11:41;98059.91;;;6.73;97.93
10135;BME280;5107;48.850;8.924;2023-02-04T01:14:08;98052.41;;;6.69;97.50
10135;BME280;5107;48.850;8.924;2023-02-04T01:16:35;98050.75;;;6.68;97.25
10135;BME280;5107;48.850;8.924;2023-02-04T01:19:02;98062.03;;;6.68;97.38
10135;BME280;5107;48.850;8.924;2023-02-04T01:21:31;98064.88;;;6.65;97.42
10135;BME280;5107;48.850;8.924;2023-02-04T01:23:58;98063.72;;;6.69;97.24
10135;BME280;5107;48.850;8.924;2023-02-04T01:26:25;98069.59;;;6.60;97.30
10135;BME280;5107;48.850;8.924;2023-02-04T01:28:53;98078.41;;;6.59;97.48
10135;BME280;5107;48.850;8.924;2023-02-04T01:31:20;98081.41;;;6.66;97.39
10135;BME280;5107;48.850;8.924;2023-02-04T01:33:48;98072.59;;;6.43;95.44
10135;BME280;5107;48.850;8.924;2023-02-04T01:36:15;98083.75;;;6.45;95.47
10135;BME280;5107;48.850;8.924;2023-02-04T01:38:47;98081.19;;;6.32;96.20
10135;BME280;5107;48.850;8.924;2023-02-04T01:41:15;98080.81;;;6.26;96.28
10135;BME280;5107;48.850;8.924;2023-02-04T01:43:42;98083.53;;;6.12;94.61
10135;BME280;5107;48.850;8.924;2023-02-04T01:46:11;98088.47;;;6.03;94.13
10135;BME280;5107;48.850;8.924;2023-02-04T01:48:38;98076.19;;;5.93;95.03
10135;BME280;5107;48.850;8.924;2023-02-04T01:51:08;98084.22;;;5.90;95.66
10135;BME280;5107;48.850;8.924;2023-02-04T01:53:36;98088.59;;;5.89;95.73
10135;BME280;5107;48.850;8.924;2023-02-04T01:56:15;98082.00;;;5.84;96.85
10135;BME280;5107;48.850;8.924;2023-02-04T01:58:43;98091.50;;;5.85;97.91
10135;BME280;5107;48.850;8.924;2023-02-04T02:01:14;98086.59;;;5.80;98.51
10135;BME280;5107;48.850;8.924;2023-02-04T02:03:41;98082.34;;;5.66;98.93
10135;BME280;5107;48.850;8.924;2023-02-04T02:06:09;98097.47;;;5.74;99.35
10135;BME280;5107;48.850;8.924;2023-02-04T02:08:37;98085.44;;;5.71;100.00
10135;BME280;5107;48.850;8.924;2023-02-04T02:11:04;98084.22;;;5.77;100.00
10135;BME280;5107;48.850;8.924;2023-02-04T02:13:33;98088.38;;;5.80;100.00
10135;BME280;5107;48.850;8.924;2023-02-04T02:16:00;98077.00;;;5.81;100.00
10135;BME280;5107;48.850;8.924;2023-02-04T02:18:27;98083.38;;;5.77;100.00
10135;BME280;5107;48.850;8.924;2023-02-04T02:20:54;98077.63;;;5.71;100.00
10135;BME280;5107;48.850;8.924;2023-02-04T02:23:44;98083.06;;;5.68;100.00
10135;BME280;5107;48.850;8.924;2023-02-04T02:26:12;98095.25;;;5.81;100.00
10135;BME280;5107;48.850;8.924;2023-02-04T02:28:40;98091.50;;;5.72;100.00
10135;BME280;5107;48.850;8.924;2023-02-04T02:31:08;98080.03;;;5.75;100.00
10135;BME280;5107;48.850;8.924;2023-02-04T02:33:35;98087.88;;;5.75;100.00
10135;BME280;5107;48.850;8.924;2023-02-04T02:36:03;98088.59;;;5.77;100.00
10135;BME280;5107;48.850;8.924;2023-02-04T02:38:30;98087.03;;;5.74;100.00
10135;BME280;5107;48.850;8.924;2023-02-04T02:41:01;98092.97;;;5.76;100.00
10135;BME280;5107;48.850;8.924;2023-02-04T02:43:29;98109.06;;;5.83;100.00
10135;BME280;5107;48.850;8.924;2023-02-04T02:45:58;98123.16;;;5.80;100.00
10135;BME280;5107;48.850;8.924;2023-02-04T02:48:26;98117.84;;;5.82;100.00
10135;BME280;5107;48.850;8.924;2023-02-04T02:50:53;98112.94;;;5.77;100.00
10135;BME280;5107;48.850;8.924;2023-02-04T02:53:21;98108.66;;;5.89;100.00
10135;BME280;5107;48.850;8.924;2023-02-04T02:55:49;98106.97;;;5.75;100.00
10135;BME280;5107;48.850;8.924;2023-02-04T02:58:27;98105.41;;;5.72;100.00
10135;BME280;5107;48.850;8.924;2023-02-04T03:00:56;98103.13;;;5.68;100.00
10135;BME280;5107;48.850;8.924;2023-02-04T03:03:27;98111.16;;;5.52;100.00
10135;BME280;5107;48.850;8.924;2023-02-04T03:05:59;98105.94;;;5.52;100.00
10135;BME280;5107;48.850;8.924;2023-02-04T03:08:28;98100.06;;;5.49;100.00
10135;BME280;5107;48.850;8.924;2023-02-04T03:10:55;98103.81;;;5.45;100.00
10135;BME280;5107;48.850;8.924;2023-02-04T03:13:23;98099.34;;;5.34;100.00
10135;BME280;5107;48.850;8.924;2023-02-04T03:15:51;98112.38;;;5.34;100.00
10135;BME280;5107;48.850;8.924;2023-02-04T03:18:20;98114.78;;;5.37;100.00
10135;BME280;5107;48.850;8.924;2023-02-04T03:20:48;98120.63;;;5.41;100.00
10135;BME280;5107;48.850;8.924;2023-02-04T03:23:17;98131.78;;;5.30;100.00
10135;BME280;5107;48.850;8.924;2023-02-04T03:25:45;98130.16;;;5.42;100.00
10135;BME280;5107;48.850;8.924;2023-02-04T03:28:12;98138.06;;;5.40;100.00
10135;BME280;5107;48.850;8.924;2023-02-04T03:30:41;98140.59;;;5.42;100.00
10135;BME280;5107;48.850;8.924;2023-02-04T03:33:09;98151.75;;;5.44;100.00
10135;BME280;5107;48.850;8.924;2023-02-04T03:35:36;98160.81;;;5.38;100.00
10135;BME280;5107;48.850;8.924;2023-02-04T03:38:03;98166.03;;;5.38;100.00
10135;BME280;5107;48.850;8.924;2023-02-04T03:40:30;98163.94;;;5.30;100.00
10135;BME280;5107;48.850;8.924;2023-02-04T03:42:57;98167.91;;;5.36;100.00
10135;BME280;5107;48.850;8.924;2023-02-04T03:45:24;98174.38;;;5.30;100.00
10135;BME280;5107;48.850;8.924;2023-02-04T03:47:52;98182.84;;;5.34;100.00
10135;BME280;5107;48.850;8.924;2023-02-04T03:50:19;98187.97;;;5.36;100.00
10135;BME280;5107;48.850;8.924;2023-02-04T03:52:46;98179.31;;;5.35;100.00
10135;BME280;5107;48.850;8.924;2023-02-04T03:55:16;98184.81;;;5.30;100.00
10135;BME280;5107;48.850;8.924;2023-02-04T03:57:43;98188.06;;;5.34;100.00
10135;BME280;5107;48.850;8.924;2023-02-04T04:00:11;98199.97;;;5.38;100.00
10135;BME280;5107;48.850;8.924;2023-02-04T04:02:39;98191.94;;;5.41;100.00
10135;BME280;5107;48.850;8.924;2023-02-04T04:05:09;98192.44;;;5.33;100.00
10135;BME280;5107;48.850;8.924;2023-02-04T04:07:36;98192.34;;;5.35;100.00
10135;BME280;5107;48.850;8.924;2023-02-04T04:10:04;98192.78;;;5.42;100.00
10135;BME280;5107;48.850;8.924;2023-02-04T04:12:31;98196.41;;;5.39;100.00
10135;BME280;5107;48.850;8.924;2023-02-04T04:14:58;98192.13;;;5.38;100.00
10135;BME280;5107;48.850;8.924;2023-02-04T04:17:25;98205.09;;;5.40;100.00
10135;BME280;5107;48.850;8.924;2023-02-04T04:19:52;98201.63;;;5.39;100.00
10135;BME280;5107;48.850;8.924;2023-02-04T04:22:21;98203.97;;;5.44;100.00
10135;BME280;5107;48.850;8.924;2023-02-04T04:24:48;98203.44;;;5.51;100.00
10135;BME280;5107;48.850;8.924;2023-02-04T04:27:15;98205.50;;;5.46;100.00
10135;BME280;5107;48.850;8.924;2023-02-04T04:29:42;98210.13;;;5.43;100.00
10135;BME280;5107;48.850;8.924;2023-02-04T04:32:09;98203.50;;;5.37;100.00
10135;BME280;5107;48.850;8.924;2023-02-04T04:34:36;98195.16;;;5.32;100.00
10135;BME280;5107;48.850;8.924;2023-02-04T04:37:03;98205.50;;;5.33;100.00
10135;BME280;5107;48.850;8.924;2023-02-04T04:39:31;98203.25;;;5.27;100.00
10135;BME280;5107;48.850;8.924;2023-02-04T04:41:58;98213.22;;;5.35;100.00
10135;BME280;5107;48.850;8.924;2023-02-04T04:44:25;98212.56;;;5.31;100.00
10135;BME280;5107;48.850;8.924;2023-02-04T04:46:52;98213.81;;;5.26;100.00
10135;BME280;5107;48.850;8.924;2023-02-04T04:49:19;98216.31;;;5.27;100.00
10135;BME280;5107;48.850;8.924;2023-02-04T04:51:46;98207.66;;;5.27;100.00
10135;BME280;5107;48.850;8.924;2023-02-04T04:54:13;98219.22;;;5.23;100.00
10135;BME280;5107;48.850;8.924;2023-02-04T04:56:41;98214.00;;;5.23;100.00
10135;BME280;5107;48.850;8.924;2023-02-04T04:59:08;98212.97;;;5.25;100.00
10135;BME280;5107;48.850;8.924;2023-02-04T05:01:35;98224.34;;;5.24;100.00
10135;BME280;5107;48.850;8.924;2023-02-04T05:04:03;98227.88;;;5.23;100.00
10135;BME280;5107;48.850;8.924;2023-02-04T05:06:30;98224.53;;;5.21;100.00
10135;BME280;5107;48.850;8.924;2023-02-04T05:08:57;98221.31;;;5.18;100.00
10135;BME280;5107;48.850;8.924;2023-02-04T05:11:24;98217.94;;;5.16;100.00
10135;BME280;5107;48.850;8.924;2023-02-04T05:13:52;98226.53;;;5.18;100.00
10135;BME280;5107;48.850;8.924;2023-02-04T05:16:19;98223.91;;;5.18;100.00
10135;BME280;5107;48.850;8.924;2023-02-04T05:18:46;98227.25;;;5.20;100.00
10135;BME280;5107;48.850;8.924;2023-02-04T05:21:13;98228.81;;;5.22;100.00
10135;BME280;5107;48.850;8.924;2023-02-04T05:23:40;98229.13;;;5.18;100.00
10135;BME280;5107;48.850;8.924;2023-02-04T05:26:07;98228.38;;;5.16;100.00
10135;BME280;5107;48.850;8.924;2023-02-04T05:28:34;98233.41;;;5.19;100.00
10135;BME280;5107;48.850;8.924;2023-02-04T05:31:03;98232.59;;;5.18;100.00
10135;BME280;5107;48.850;8.924;2023-02-04T05:33:30;98240.09;;;5.23;100.00
10135;BME280;5107;48.850;8.924;2023-02-04T05:35:57;98236.47;;;5.25;100.00
10135;BME280;5107;48.850;8.924;2023-02-04T05:38:24;98240.19;;;5.21;100.00
10135;BME280;5107;48.850;8.924;2023-02-04T05:40:51;98240.84;;;5.25;100.00
10135;BME280;5107;48.850;8.924;2023-02-04T05:43:18;98246.81;;;5.27;100.00
10135;BME280;5107;48.850;8.924;2023-02-04T05:45:45;98243.78;;;5.33;100.00
10135;BME280;5107;48.850;8.924;2023-02-04T05:48:13;98242.66;;;5.37;100.00
10135;BME280;5107;48.850;8.924;2023-02-04T05:50:40;98244.63;;;5.33;100.00
10135;BME280;5107;48.850;8.924;2023-02-04T05:53:07;98247.38;;;5.45;100.00
10135;BME280;5107;48.850;8.924;2023-02-04T05:55:34;98244.31;;;5.38;100.00
10135;BME280;5107;48.850;8.924;2023-02-04T05:58:01;98257.47;;;5.37;100.00
10135;BME280;5107;48.850;8.924;2023-02-04T06:00:28;98258.63;;;5.32;100.00
10135;BME280;5107;48.850;8.924;2023-02-04T06:02:55;98253.31;;;5.34;100.00
10135;BME280;5107;48.850;8.924;2023-02-04T06:05:24;98271.81;;;5.44;100.00
10135;BME280;5107;48.850;8.924;2023-02-04T06:07:51;98282.63;;;5.38;100.00
10135;BME280;5107;48.850;8.924;2023-02-04T06:10:18;98284.03;;;5.43;100.00
10135;BME280;5107;48.850;8.924;2023-02-04T06:12:46;98288.28;;;5.44;100.00
10135;BME280;5107;48.850;8.924;2023-02-04T06:15:14;98290.31;;;5.53;100.00
10135;BME280;5107;48.850;8.924;2023-02-04T06:17:41;98296.34;;;5.41;100.00
10135;BME280;5107;48.850;8.924;2023-02-04T06:20:12;98292.88;;;5.41;100.00
10135;BME280;5107;48.850;8.924;2023-02-04T06:22:40;98287.34;;;5.45;100.00
10135;BME280;5107;48.850;8.924;2023-02-04T06:25:07;98295.19;;;5.45;100.00
10135;BME280;5107;48.850;8.924;2023-02-04T06:27:35;98298.19;;;5.39;100.00
10135;BME280;5107;48.850;8.924;2023-02-04T06:30:02;98305.63;;;5.45;100.00
10135;BME280;5107;48.850;8.924;2023-02-04T06:32:29;98311.78;;;5.44;100.00
10135;BME280;5107;48.850;8.924;2023-02-04T06:34:56;98309.38;;;5.41;100.00
10135;BME280;5107;48.850;8.924;2023-02-04T06:37:23;98311.63;;;5.33;100.00
10135;BME280;5107;48.850;8.924;2023-02-04T06:39:51;98313.50;;;5.31;100.00
10135;BME280;5107;48.850;8.924;2023-02-04T06:42:19;98311.28;;;5.25;100.00
10135;BME280;5107;48.850;8.924;2023-02-04T06:44:46;98320.44;;;5.18;100.00
10135;BME280;5107;48.850;8.924;2023-02-04T06:47:13;98315.22;;;5.18;100.00
10135;BME280;5107;48.850;8.924;2023-02-04T06:49:40;98323.78;;;5.20;100.00
10135;BME280;5107;48.850;8.924;2023-02-04T06:52:07;98323.97;;;5.17;100.00
10135;BME280;5107;48.850;8.924;2023-02-04T06:54:35;98330.03;;;5.17;100.00
10135;BME280;5107;48.850;8.924;2023-02-04T06:57:04;98339.06;;;5.12;100.00
10135;BME280;5107;48.850;8.924;2023-02-04T06:59:32;98338.78;;;5.16;100.00
10135;BME280;5107;48.850;8.924;2023-02-04T07:01:59;98342.25;;;5.17;100.00
10135;BME280;5107;48.850;8.924;2023-02-04T07:04:27;98333.31;;;5.07;100.00
10135;BME280;5107;48.850;8.924;2023-02-04T07:06:54;98335.16;;;5.05;100.00
10135;BME280;5107;48.850;8.924;2023-02-04T07:09:21;98331.94;;;5.01;100.00
10135;BME280;5107;48.850;8.924;2023-02-04T07:11:48;98343.09;;;5.03;100.00
10135;BME280;5107;48.850;8.924;2023-02-04T07:14:17;98353.63;;;5.02;100.00
10135;BME280;5107;48.850;8.924;2023-02-04T07:16:44;98345.50;;;5.06;100.00
10135;BME280;5107;48.850;8.924;2023-02-04T07:19:11;98347.38;;;5.04;100.00
10135;BME280;5107;48.850;8.924;2023-02-04T07:21:38;98356.59;;;5.10;100.00
10135;BME280;5107;48.850;8.924;2023-02-04T07:24:05;98368.41;;;5.15;100.00
10135;BME280;5107;48.850;8.924;2023-02-04T07:26:32;98369.66;;;5.10;100.00
10135;BME280;5107;48.850;8.924;2023-02-04T07:29:00;98379.34;;;5.08;100.00
10135;BME280;5107;48.850;8.924;2023-02-04T07:31:28;98375.22;;;5.18;100.00
10135;BME280;5107;48.850;8.924;2023-02-04T07:33:55;98381.72;;;5.11;100.00
10135;BME280;5107;48.850;8.924;2023-02-04T07:36:22;98377.19;;;5.14;100.00
10135;BME280;5107;48.850;8.924;2023-02-04T07:38:50;98378.41;;;5.09;100.00
10135;BME280;5107;48.850;8.924;2023-02-04T07:41:18;98370.84;;;5.18;100.00
10135;BME280;5107;48.850;8.924;2023-02-04T07:43:45;98379.69;;;5.16;100.00
10135;BME280;5107;48.850;8.924;2023-02-04T07:46:12;98380.81;;;5.12;100.00
10135;BME280;5107;48.850;8.924;2023-02-04T07:48:41;98389.84;;;5.06;100.00
10135;BME280;5107;48.850;8.924;2023-02-04T07:51:08;98399.44;;;5.06;100.00
10135;BME280;5107;48.850;8.924;2023-02-04T07:53:36;98403.81;;;5.05;100.00
10135;BME280;5107;48.850;8.924;2023-02-04T07:56:03;98405.41;;;5.08;100.00
10135;BME280;5107;48.850;8.924;2023-02-04T07:58:30;98406.16;;;5.10;100.00
10135;BME280;5107;48.850;8.924;2023-02-04T08:00:57;98401.78;;;5.10;100.00
10135;BME280;5107;48.850;8.924;2023-02-04T08:03:26;98413.31;;;5.06;100.00
10135;BME280;5107;48.850;8.924;2023-02-04T08:05:54;98404.28;;;5.40;100.00
10135;BME280;5107;48.850;8.924;2023-02-04T08:08:22;98405.63;;;5.87;100.00
10135;BME280;5107;48.850;8.924;2023-02-04T08:10:49;98415.44;;;5.97;100.00
10135;BME280;5107;48.850;8.924;2023-02-04T08:13:16;98420.84;;;5.94;100.00
10135;BME280;5107;48.850;8.924;2023-02-04T08:15:43;98417.72;;;5.89;100.00
10135;BME280;5107;48.850;8.924;2023-02-04T08:18:10;98423.38;;;5.82;99.61
10135;BME280;5107;48.850;8.924;2023-02-04T08:20:37;98419.53;;;5.60;98.49
10135;BME280;5107;48.850;8.924;2023-02-04T08:23:05;98420.66;;;5.56;98.07
10135;BME280;5107;48.850;8.924;2023-02-04T08:25:32;98430.34;;;5.54;98.91
10135;BME280;5107;48.850;8.924;2023-02-04T08:27:59;98424.41;;;5.52;98.42
10135;BME280;5107;48.850;8.924;2023-02-04T08:30:26;98434.44;;;5.44;98.46
10135;BME280;5107;48.850;8.924;2023-02-04T08:32:53;98438.66;;;5.47;99.41
10135;BME280;5107;48.850;8.924;2023-02-04T08:35:20;98434.84;;;5.52;100.00
10135;BME280;5107;48.850;8.924;2023-02-04T08:37:47;98437.25;;;5.55;99.26
10135;BME280;5107;48.850;8.924;2023-02-04T08:40:16;98444.69;;;5.61;99.54
10135;BME280;5107;48.850;8.924;2023-02-04T08:42:43;98439.38;;;5.63;99.09
10135;BME280;5107;48.850;8.924;2023-02-04T08:45:10;98445.88;;;5.70;99.15
10135;BME280;5107;48.850;8.924;2023-02-04T08:47:38;98451.75;;;5.73;99.11
10135;BME280;5107;48.850;8.924;2023-02-04T08:50:06;98447.00;;;5.80;98.41
10135;BME280;5107;48.850;8.924;2023-02-04T08:52:33;98452.88;;;5.84;98.22
10135;BME280;5107;48.850;8.924;2023-02-04T08:55:01;98456.22;;;6.00;98.51
10135;BME280;5107;48.850;8.924;2023-02-04T08:57:29;98462.03;;;5.91;97.13
10135;BME280;5107;48.850;8.924;2023-02-04T08:59:56;98463.41;;;6.23;96.92
10135;BME280;5107;48.850;8.924;2023-02-04T09:02:23;98467.44;;;6.15;95.45
10135;BME280;5107;48.850;8.924;2023-02-04T09:04:51;98478.50;;;6.32;96.03
10135;BME280;5107;48.850;8.924;2023-02-04T09:07:20;98479.25;;;6.34;94.80
10135;BME280;5107;48.850;8.924;2023-02-04T09:09:47;98479.28;;;6.47;93.94
10135;BME280;5107;48.850;8.924;2023-02-04T09:12:14;98470.78;;;6.83;94.22
10135;BME280;5107;48.850;8.924;2023-02-04T09:14:43;98475.81;;;6.99;91.77
10135;BME280;5107;48.850;8.924;2023-02-04T09:17:10;98476.44;;;7.15;90.74
10135;BME280;5107;48.850;8.924;2023-02-04T09:19:37;98483.91;;;7.34;89.04
10135;BME280;5107;48.850;8.924;2023-02-04T09:22:04;98475.06;;;7.60;88.93
10135;BME280;5107;48.850;8.924;2023-02-04T09:24:31;98488.28;;;7.58;85.84
10135;BME280;5107;48.850;8.924;2023-02-04T09:26:58;98484.97;;;7.93;85.15
10135;BME280;5107;48.850;8.924;2023-02-04T09:29:25;98494.81;;;8.26;81.84
10135;BME280;5107;48.850;8.924;2023-02-04T09:31:53;98498.75;;;8.68;80.60
10135;BME280;5107;48.850;8.924;2023-02-04T09:34:20;98496.22;;;9.12;78.79
10135;BME280;5107;48.850;8.924;2023-02-04T09:36:47;98500.69;;;9.34;79.36
10135;BME280;5107;48.850;8.924;2023-02-04T09:39:14;98501.31;;;9.82;76.99
10135;BME280;5107;48.850;8.924;2023-02-04T09:41:42;98507.53;;;10.04;74.56
10135;BME280;5107;48.850;8.924;2023-02-04T09:44:13;98507.63;;;9.80;72.43
10135;BME280;5107;48.850;8.924;2023-02-04T09:46:46;98514.94;;;9.43;73.12
10135;BME280;5107;48.850;8.924;2023-02-04T09:49:15;98522.53;;;8.78;74.44
10135;BME280;5107;48.850;8.924;2023-02-04T09:51:43;98522.81;;;8.62;75.79
10135;BME280;5107;48.850;8.924;2023-02-04T09:54:13;98525.47;;;8.49;76.62
10135;BME280;5107;48.850;8.924;2023-02-04T09:56:41;98524.19;;;8.31;77.90
10135;BME280;5107;48.850;8.924;2023-02-04T09:59:11;98513.75;;;8.06;77.29
10135;BME280;5107;48.850;8.924;2023-02-04T10:01:39;98525.72;;;7.97;78.01
10135;BME280;5107;48.850;8.924;2023-02-04T10:04:11;98519.66;;;8.20;79.08
10135;BME280;5107;48.850;8.924;2023-02-04T10:06:41;98518.06;;;8.43;76.91
10135;BME280;5107;48.850;8.924;2023-02-04T10:09:10;98515.91;;;8.72;75.46
10135;BME280;5107;48.850;8.924;2023-02-04T10:11:39;98510.31;;;8.42;75.09
10135;BME280;5107;48.850;8.924;2023-02-04T10:14:12;98523.56;;;8.15;75.14
10135;BME280;5107;48.850;8.924;2023-02-04T10:16:41;98519.50;;;8.11;76.47
10135;BME280;5107;48.850;8.924;2023-02-04T10:19:14;98520.06;;;8.03;76.90
10135;BME280;5107;48.850;8.924;2023-02-04T10:21:44;98516.06;;;7.97;74.76
10135;BME280;5107;48.850;8.924;2023-02-04T10:24:15;98527.03;;;7.66;77.42
10135;BME280;5107;48.850;8.924;2023-02-04T10:26:43;98511.63;;;7.49;78.15
10135;BME280;5107;48.850;8.924;2023-02-04T10:29:15;98522.00;;;7.63;75.13
10135;BME280;5107;48.850;8.924;2023-02-04T10:31:44;98513.59;;;7.71;77.72
10135;BME280;5107;48.850;8.924;2023-02-04T10:34:15;98514.91;;;8.38;75.92
10135;BME280;5107;48.850;8.924;2023-02-04T10:36:46;98517.53;;;8.86;70.98
10135;BME280;5107;48.850;8.924;2023-02-04T10:39:16;98514.75;;;9.22;69.23
10135;BME280;5107;48.850;8.924;2023-02-04T10:41:46;98510.25;;;9.80;65.45
10135;BME280;5107;48.850;8.924;2023-02-04T10:44:15;98504.41;;;9.99;64.63
10135;BME280;5107;48.850;8.924;2023-02-04T10:46:43;98508.78;;;10.43;64.35
10135;BME280;5107;48.850;8.924;2023-02-04T10:49:20;98507.22;;;10.72;60.84
10135;BME280;5107;48.850;8.924;2023-02-04T10:51:50;98506.22;;;10.84;57.17
10135;BME280;5107;48.850;8.924;2023-02-04T10:54:19;98502.88;;;10.82;59.85
10135;BME280;5107;48.850;8.924;2023-02-04T10:57:06;98511.06;;;11.00;59.56
10135;BME280;5107;48.850;8.924;2023-02-04T10:59:35;98512.44;;;10.62;58.27
10135;BME280;5107;48.850;8.924;2023-02-04T11:02:37;98517.19;;;10.03;63.01
10135;BME280;5107;48.850;8.924;2023-02-04T11:05:13;98510.75;;;9.51;61.96
10135;BME280;5107;48.850;8.924;2023-02-04T11:07:43;98521.00;;;9.43;64.86
10135;BME280;5107;48.850;8.924;2023-02-04T11:10:13;98517.63;;;9.30;63.59
10135;BME280;5107;48.850;8.924;2023-02-04T11:12:43;98512.72;;;9.14;63.45
10135;BME280;5107;48.850;8.924;2023-02-04T11:15:41;98509.69;;;8.97;63.57
10135;BME280;5107;48.850;8.924;2023-02-04T11:18:12;98507.50;;;8.56;60.40
10135;BME280;5107;48.850;8.924;2023-02-04T11:20:52;98513.81;;;8.17;62.16
10135;BME280;5107;48.850;8.924;2023-02-04T11:23:46;98518.00;;;7.83;64.40
10135;BME280;5107;48.850;8.924;2023-02-04T11:26:15;98518.00;;;7.83;66.90
10135;BME280;5107;48.850;8.924;2023-02-04T11:28:54;98519.88;;;7.93;66.64
10135;BME280;5107;48.850;8.924;2023-02-04T11:31:41;98509.78;;;8.00;63.53
10135;BME280;5107;48.850;8.924;2023-02-04T11:34:24;98509.38;;;7.93;63.11
10135;BME280;5107;48.850;8.924;2023-02-04T11:37:04;98515.34;;;7.95;64.58
10135;BME280;5107;48.850;8.924;2023-02-04T11:39:37;98509.97;;;7.97;62.87
10135;BME280;5107;48.850;8.924;2023-02-04T11:42:09;98515.78;;;7.89;63.86
10135;BME280;5107;48.850;8.924;2023-02-04T11:44:40;98518.72;;;7.85;65.04
10135;BME280;5107;48.850;8.924;2023-02-04T11:47:07;98514.38;;;7.96;63.15
10135;BME280;5107;48.850;8.924;2023-02-04T11:49:35;98511.00;;;8.07;60.20
10135;BME280;5107;48.850;8.924;2023-02-04T11:52:04;98520.78;;;8.29;64.20
10135;BME280;5107;48.850;8.924;2023-02-04T11:54:35;98513.03;;;8.40;59.11
10135;BME280;5107;48.850;8.924;2023-02-04T11:57:03;98512.19;;;8.40;59.61
10135;BME280;5107;48.850;8.924;2023-02-04T11:59:30;98510.94;;;8.45;61.21
10135;BME280;5107;48.850;8.924;2023-02-04T12:02:12;98518.22;;;8.53;59.11
10135;BME280;5107;48.850;8.924;2023-02-04T12:04:51;98515.25;;;8.57;59.06
10135;BME280;5107;48.850;8.924;2023-02-04T12:07:24;98522.09;;;8.36;61.53
10135;BME280;5107;48.850;8.924;2023-02-04T12:09:53;98517.56;;;8.25;61.60
10135;BME280;5107;48.850;8.924;2023-02-04T12:12:26;98517.53;;;8.02;62.26
10135;BME280;5107;48.850;8.924;2023-02-04T12:15:02;98518.56;;;8.12;59.95
10135;BME280;5107;48.850;8.924;2023-02-04T12:17:30;98519.31;;;8.01;60.29
10135;BME280;5107;48.850;8.924;2023-02-04T12:19:57;98530.94;;;7.97;58.19
10135;BME280;5107;48.850;8.924;2023-02-04T12:22:24;98529.50;;;7.93;58.59
10135;BME280;5107;48.850;8.924;2023-02-04T12:24:53;98524.16;;;7.94;58.95
10135;BME280;5107;48.850;8.924;2023-02-04T12:27:20;98524.66;;;7.99;59.84
10135;BME280;5107;48.850;8.924;2023-02-04T12:29:47;98531.06;;;7.95;62.79
10135;BME280;5107;48.850;8.924;2023-02-04T12:32:14;98528.88;;;7.89;62.81
10135;BME280;5107;48.850;8.924;2023-02-04T12:34:41;98526.09;;;8.04;63.09
10135;BME280;5107;48.850;8.924;2023-02-04T12:37:08;98524.66;;;7.99;62.92
10135;BME280;5107;48.850;8.924;2023-02-04T12:39:35;98523.75;;;7.88;61.75
10135;BME280;5107;48.850;8.924;2023-02-04T12:42:04;98515.63;;;8.04;62.15
10135;BME280;5107;48.850;8.924;2023-02-04T12:44:31;98516.06;;;8.10;64.39
10135;BME280;5107;48.850;8.924;2023-02-04T12:47:00;98526.34;;;8.37;62.48
10135;BME280;5107;48.850;8.924;2023-02-04T12:49:27;98523.63;;;8.38;60.13
10135;BME280;5107;48.850;8.924;2023-02-04T12:51:54;98527.25;;;8.49;59.04
10135;BME280;5107;48.850;8.924;2023-02-04T12:54:24;98526.88;;;8.66;56.84
10135;BME280;5107;48.850;8.924;2023-02-04T12:56:51;98527.31;;;8.84;58.03
10135;BME280;5107;48.850;8.924;2023-02-04T12:59:19;98517.59;;;9.08;54.90
10135;BME280;5107;48.850;8.924;2023-02-04T13:01:46;98527.16;;;9.09;55.03
10135;BME280;5107;48.850;8.924;2023-02-04T13:04:13;98522.00;;;9.07;55.25
10135;BME280;5107;48.850;8.924;2023-02-04T13:06:40;98520.66;;;8.91;57.03
10135;BME280;5107;48.850;8.924;2023-02-04T13:09:07;98526.31;;;8.73;57.47
10135;BME280;5107;48.850;8.924;2023-02-04T13:11:34;98525.25;;;8.52;58.38
10135;BME280;5107;48.850;8.924;2023-02-04T13:14:01;98521.81;;;8.52;60.08
10135;BME280;5107;48.850;8.924;2023-02-04T13:16:30;98530.97;;;8.70;58.59
10135;BME280;5107;48.850;8.924;2023-02-04T13:18:57;98523.63;;;8.62;59.38
10135;BME280;5107;48.850;8.924;2023-02-04T13:21:24;98521.97;;;8.61;59.83